首页
METAR-TAF:

METAR-TAF

机场 :

Elkins-Randolph County Airport (Jennings Randolph Field)

Elkins, 西維吉尼亞州, 美国

纬度: 38-53-07N, 经度: 079-51-10W, 海拔: 605米

当前天气观测

该预报发布于23分钟前的10:51 UTC
静风
温度 17°C
湿度 88%
气压 1026 hPa
能見度: 9.7公里
少量云层高于6000英尺
轻雾

METAR: KEKN 271051Z AUTO 00000KT 6SM BR FEW060 17/15 A3029 RMK AO2 SLP247 T01670150 TSNO

时间: 07:14 (11:14 UTC)

预报

该预报发布于46分钟前的10:28 UTC
预报有效从27日的 10点(UTC)到 28日的 06点(UTC)
风速节,风向
能見度: 6.4公里
天空无云
轻雾
从 27日的 1100点(UTC)
风速节,风向
能見度: 0.4公里
阴天层高于100英尺
从 27日的 1300点(UTC)
风速3节,风向多变
能見度: 10公里
少量云层高于25000英尺

TAF: KEKN 271028Z 2710/2806 00000KT 4SM BR SKC FM271100 00000KT 1/4SM FG OVC001 FM271300 VRB03KT P6SM FEW250

超过4000个机场的气象观测和天气预报(METAR&TAF报告)。

可查询的气象台以黄色和红色小点在地图上表示。

将鼠标移到小点上方,可查看气象台名称。

然后点击查看天气观测和预报。

如需切换地图:点击带黑十字的绿色按钮放大地图;点击带横线的绿色按钮缩小地图;或者点击绿色箭头查看邻近地区的地图。


METAR-TAF: